createdAt,value
2023-04-17T00:00:50.255Z,24.92
2023-04-17T00:03:14.261Z,29.10
2023-04-17T00:05:38.368Z,26.02
2023-04-17T00:08:03.455Z,27.00
2023-04-17T00:10:27.280Z,27.58
2023-04-17T00:12:51.212Z,21.23
2023-04-17T00:15:14.764Z,23.90
2023-04-17T00:17:38.444Z,23.15
2023-04-17T00:20:02.022Z,23.42
2023-04-17T00:22:25.949Z,26.88
2023-04-17T00:24:50.883Z,30.25
2023-04-17T00:27:14.574Z,24.08
2023-04-17T00:29:38.522Z,26.02
2023-04-17T00:32:02.184Z,23.25
2023-04-17T00:34:25.894Z,28.60
2023-04-17T00:36:49.622Z,27.95
2023-04-17T00:39:13.534Z,25.77
2023-04-17T00:41:38.766Z,29.17
2023-04-17T00:44:02.387Z,22.77
2023-04-17T00:46:26.122Z,27.13
2023-04-17T00:48:50.882Z,24.15
2023-04-17T00:51:14.648Z,25.23
2023-04-17T00:53:38.388Z,26.02
2023-04-17T00:56:04.478Z,28.08
2023-04-17T00:58:29.729Z,26.25
2023-04-17T01:00:54.167Z,25.60
2023-04-17T01:03:18.163Z,26.67
2023-04-17T01:05:42.994Z,26.17
2023-04-17T01:08:06.922Z,28.88
2023-04-17T01:10:30.520Z,25.58
2023-04-17T01:13:03.878Z,28.10
2023-04-17T01:15:29.636Z,28.88
2023-04-17T01:17:53.196Z,28.33
2023-04-17T01:20:17.107Z,25.40
2023-04-17T01:22:40.649Z,28.38
2023-04-17T01:25:06.920Z,22.23
2023-04-17T01:27:33.092Z,26.23
2023-04-17T01:29:56.759Z,25.42
2023-04-17T01:32:20.758Z,28.13
2023-04-17T01:34:44.574Z,27.45
2023-04-17T01:37:08.182Z,26.63
2023-04-17T01:39:31.855Z,24.17
2023-04-17T01:41:56.804Z,28.85
2023-04-17T01:44:20.764Z,24.90
2023-04-17T01:46:44.300Z,30.70
2023-04-17T01:49:08.017Z,25.50
2023-04-17T01:51:31.547Z,23.40
2023-04-17T01:53:55.420Z,26.52
2023-04-17T01:56:18.949Z,25.88
2023-04-17T01:58:44.057Z,25.55
2023-04-17T02:01:07.771Z,28.27
2023-04-17T02:03:32.054Z,36.88
2023-04-17T02:05:55.735Z,26.58
2023-04-17T02:08:19.399Z,25.42
2023-04-17T02:10:43.119Z,26.05
2023-04-17T02:13:08.029Z,28.38
2023-04-17T02:15:32.921Z,26.73
2023-04-17T02:17:56.661Z,31.77
2023-04-17T02:20:20.314Z,26.42
2023-04-17T02:22:43.948Z,31.90
2023-04-17T02:25:07.950Z,26.52
2023-04-17T02:27:31.917Z,26.20
2023-04-17T02:29:55.496Z,25.05
2023-04-17T02:32:20.798Z,28.60
2023-04-17T02:34:45.187Z,27.70
2023-04-17T02:37:11.530Z,30.48
2023-04-17T02:39:35.291Z,35.65
2023-04-17T02:41:59.184Z,27.70
2023-04-17T02:44:22.717Z,26.27
2023-04-17T02:46:46.332Z,26.45
2023-04-17T02:49:12.450Z,30.13
2023-04-17T02:51:36.696Z,26.50
2023-04-17T02:54:00.319Z,27.75
2023-04-17T02:56:23.964Z,27.52
2023-04-17T02:58:47.477Z,32.65
2023-04-17T03:01:11.143Z,34.28
2023-04-17T03:03:42.201Z,29.00
2023-04-17T03:06:10.876Z,30.48
2023-04-17T03:08:35.730Z,28.70
2023-04-17T03:10:59.905Z,30.63
2023-04-17T03:13:24.220Z,30.35
2023-04-17T03:15:49.276Z,32.13
2023-04-17T03:18:12.875Z,33.22
2023-04-17T03:20:36.566Z,30.20
2023-04-17T03:23:01.500Z,30.38
2023-04-17T03:25:25.215Z,34.95
2023-04-17T03:27:49.584Z,30.05
2023-04-17T03:30:15.656Z,29.48
2023-04-17T03:32:43.447Z,30.38
2023-04-17T03:35:07.708Z,33.35
2023-04-17T03:37:32.042Z,31.17
2023-04-17T03:39:57.120Z,31.42
2023-04-17T03:42:22.309Z,31.13
2023-04-17T03:44:46.692Z,31.20
2023-04-17T03:47:12.274Z,34.38
2023-04-17T03:49:38.142Z,35.92
2023-04-17T03:52:03.750Z,36.15
2023-04-17T03:54:29.293Z,34.28
2023-04-17T03:56:54.967Z,40.08
2023-04-17T03:59:19.485Z,32.35
2023-04-17T04:01:44.785Z,38.17
2023-04-17T04:04:16.162Z,35.03
2023-04-17T04:06:41.116Z,35.60
2023-04-17T04:09:06.680Z,38.28
2023-04-17T04:11:30.224Z,40.78
2023-04-17T04:13:55.284Z,39.30
2023-04-17T04:16:19.050Z,33.38
2023-04-17T04:18:43.401Z,37.30
2023-04-17T04:21:08.200Z,43.08
2023-04-17T04:23:37.684Z,41.65
2023-04-17T04:26:02.701Z,34.10
2023-04-17T04:28:49.448Z,36.00
2023-04-17T04:31:30.672Z,31.88
2023-04-17T04:33:58.879Z,39.10
2023-04-17T04:36:25.190Z,38.53
2023-04-17T04:39:02.126Z,39.70
2023-04-17T04:41:33.873Z,40.10
2023-04-17T04:43:59.625Z,40.13
2023-04-17T04:46:23.896Z,36.08
2023-04-17T04:48:49.189Z,40.28
2023-04-17T04:51:12.980Z,37.00
2023-04-17T04:53:37.375Z,43.08
2023-04-17T04:56:01.028Z,41.55
2023-04-17T04:58:29.471Z,39.33
2023-04-17T05:00:56.772Z,38.63
2023-04-17T05:03:27.122Z,35.27
2023-04-17T05:05:52.360Z,43.65
2023-04-17T05:08:18.828Z,40.15
2023-04-17T05:10:51.090Z,40.63
2023-04-17T05:13:14.904Z,36.00
2023-04-17T05:15:38.596Z,46.25
2023-04-17T05:18:02.742Z,39.42
2023-04-17T05:20:29.301Z,40.75
2023-04-17T05:22:56.777Z,40.38
2023-04-17T05:25:20.876Z,40.60
2023-04-17T05:27:44.526Z,41.58
2023-04-17T05:30:11.271Z,40.47
2023-04-17T05:32:35.686Z,41.65
2023-04-17T05:35:20.312Z,38.13
2023-04-17T05:37:45.946Z,37.70
2023-04-17T05:40:11.994Z,41.88
2023-04-17T05:42:35.773Z,38.13
2023-04-17T05:45:00.034Z,34.63
2023-04-17T05:47:23.750Z,35.92
2023-04-17T05:49:48.679Z,45.35
2023-04-17T05:52:12.384Z,38.83
2023-04-17T05:54:39.666Z,40.30
2023-04-17T05:57:06.671Z,39.97
2023-04-17T05:59:30.667Z,45.10
2023-04-17T06:01:55.210Z,40.03
2023-04-17T06:04:19.500Z,41.50
2023-04-17T06:06:47.113Z,40.85
2023-04-17T06:09:12.350Z,41.75
2023-04-17T06:11:37.410Z,41.45
2023-04-17T06:14:02.611Z,45.92
2023-04-17T06:16:26.585Z,44.40
2023-04-17T06:18:50.216Z,43.95
2023-04-17T06:21:13.779Z,41.17
2023-04-17T06:23:37.883Z,46.30
2023-04-17T06:26:01.782Z,44.45
2023-04-17T06:28:25.677Z,43.92
2023-04-17T06:30:52.607Z,42.00
2023-04-17T06:33:16.592Z,41.67
2023-04-17T06:35:40.912Z,40.00
2023-04-17T06:38:21.789Z,42.10
2023-04-17T06:40:46.494Z,39.88
2023-04-17T06:43:10.095Z,39.05
2023-04-17T06:45:35.809Z,48.50
2023-04-17T06:48:04.331Z,39.25
2023-04-17T06:50:29.922Z,37.70
2023-04-17T06:52:53.492Z,40.30
2023-04-17T06:55:17.098Z,42.97
2023-04-17T06:57:40.696Z,38.63
2023-04-17T07:00:04.786Z,40.75
2023-04-17T07:02:28.526Z,36.53
2023-04-17T07:04:54.904Z,39.40
2023-04-17T07:07:18.761Z,35.78
2023-04-17T07:09:42.982Z,37.88
2023-04-17T07:12:06.726Z,33.92
2023-04-17T07:14:30.627Z,34.35
2023-04-17T07:16:54.188Z,35.38
2023-04-17T07:19:18.010Z,35.03
2023-04-17T07:21:43.083Z,39.95
2023-04-17T07:24:07.241Z,39.05
2023-04-17T07:26:30.902Z,36.30
2023-04-17T07:28:54.574Z,40.70
2023-04-17T07:31:18.242Z,39.55
2023-04-17T07:33:41.968Z,35.10
2023-04-17T07:36:08.456Z,37.33
2023-04-17T07:38:34.182Z,33.97
2023-04-17T07:40:57.727Z,34.25
2023-04-17T07:43:21.290Z,31.75
2023-04-17T07:45:44.834Z,31.20
2023-04-17T07:48:08.490Z,35.08
2023-04-17T07:50:32.591Z,33.40
2023-04-17T07:52:57.227Z,34.25
2023-04-17T07:55:22.452Z,35.47
2023-04-17T07:57:46.584Z,28.52
2023-04-17T08:00:13.663Z,32.53
2023-04-17T08:02:38.539Z,32.35
2023-04-17T08:05:02.265Z,31.02
2023-04-17T08:07:25.967Z,36.50
2023-04-17T08:09:51.158Z,26.95
2023-04-17T08:12:16.137Z,33.97
2023-04-17T08:14:40.812Z,28.75
2023-04-17T08:17:04.768Z,28.10
2023-04-17T08:19:28.462Z,35.42
2023-04-17T08:21:52.765Z,32.95
2023-04-17T08:24:19.199Z,29.38
2023-04-17T08:26:43.481Z,26.95
2023-04-17T08:29:08.410Z,33.88
2023-04-17T08:31:32.343Z,27.85
2023-04-17T08:34:06.613Z,27.33
2023-04-17T08:36:34.438Z,26.45
2023-04-17T08:38:57.962Z,30.50
2023-04-17T08:41:25.237Z,24.67
2023-04-17T08:43:51.328Z,28.02
2023-04-17T08:46:17.493Z,25.15
2023-04-17T08:48:41.113Z,22.77
2023-04-17T08:51:04.953Z,26.67
2023-04-17T08:53:28.491Z,23.95
2023-04-17T08:55:52.186Z,21.95
2023-04-17T08:58:16.032Z,23.23
2023-04-17T09:00:41.714Z,26.33
2023-04-17T09:03:08.991Z,20.63
2023-04-17T09:05:34.466Z,22.45
2023-04-17T09:08:11.380Z,21.80
2023-04-17T09:10:40.217Z,21.73
2023-04-17T09:13:03.820Z,21.83
2023-04-17T09:15:27.523Z,20.27
2023-04-17T09:17:51.147Z,22.40
2023-04-17T09:20:17.421Z,21.55
2023-04-17T09:22:42.441Z,19.67
2023-04-17T09:25:08.558Z,25.05
2023-04-17T09:27:32.490Z,18.85
2023-04-17T09:30:04.440Z,19.17
2023-04-17T09:32:28.602Z,22.80
2023-04-17T09:34:53.131Z,21.70
2023-04-17T09:37:18.098Z,22.98
2023-04-17T09:39:57.698Z,18.40
2023-04-17T09:42:21.281Z,21.83
2023-04-17T09:44:45.095Z,19.00
2023-04-17T09:47:11.386Z,22.20
2023-04-17T09:49:40.579Z,23.98
2023-04-17T09:52:05.492Z,22.08
2023-04-17T09:54:32.865Z,25.77
2023-04-17T09:56:57.770Z,21.52
2023-04-17T09:59:23.383Z,19.80
2023-04-17T10:01:47.714Z,20.05
2023-04-17T10:04:12.052Z,19.05
2023-04-17T10:06:37.200Z,19.23
2023-04-17T10:09:00.940Z,17.45
2023-04-17T10:11:30.000Z,20.63
2023-04-17T10:14:05.855Z,20.90
2023-04-17T10:16:37.189Z,22.63
2023-04-17T10:19:29.835Z,22.50
2023-04-17T10:22:31.251Z,21.50
2023-04-17T10:25:19.492Z,23.08
2023-04-17T10:27:53.502Z,20.70
2023-04-17T10:30:17.750Z,20.05
2023-04-17T10:32:43.324Z,17.02
2023-04-17T10:35:39.954Z,20.08
2023-04-17T10:38:08.815Z,18.40
2023-04-17T10:40:34.364Z,28.77
2023-04-17T10:43:08.478Z,23.02
2023-04-17T10:45:57.527Z,17.98
2023-04-17T10:48:23.324Z,23.45
2023-04-17T10:50:47.253Z,22.75
2023-04-17T10:53:42.214Z,21.90
2023-04-17T10:56:06.246Z,18.90
2023-04-17T10:58:32.180Z,19.33
2023-04-17T11:00:55.983Z,24.48
2023-04-17T11:03:19.631Z,18.23
2023-04-17T11:05:46.942Z,23.63
2023-04-17T11:08:11.744Z,19.00
2023-04-17T11:10:38.020Z,17.77
2023-04-17T11:13:01.609Z,23.08
2023-04-17T11:15:31.190Z,18.08
2023-04-17T11:17:56.175Z,22.50
2023-04-17T11:20:23.293Z,21.20
2023-04-17T11:22:47.095Z,18.67
2023-04-17T11:25:20.569Z,20.20
2023-04-17T11:27:44.177Z,19.65
2023-04-17T11:30:09.733Z,21.42
2023-04-17T11:32:38.888Z,23.25
2023-04-17T11:35:02.480Z,21.63
2023-04-17T11:37:26.037Z,19.35
2023-04-17T11:39:49.695Z,20.98
2023-04-17T11:42:13.367Z,21.35
2023-04-17T11:44:37.049Z,18.73
2023-04-17T11:47:01.010Z,20.60
2023-04-17T11:49:30.627Z,23.55
2023-04-17T11:51:54.384Z,23.00
2023-04-17T11:54:26.515Z,19.17
2023-04-17T11:57:01.496Z,17.63
2023-04-17T11:59:32.480Z,18.65
2023-04-17T12:01:56.571Z,20.70
2023-04-17T12:04:22.411Z,17.48
2023-04-17T12:06:47.523Z,16.98
2023-04-17T12:09:21.778Z,16.95
2023-04-17T12:11:45.738Z,19.75
2023-04-17T12:14:12.682Z,17.10
2023-04-17T12:16:37.005Z,17.27
2023-04-17T12:19:01.087Z,18.00
2023-04-17T12:21:25.540Z,18.38
2023-04-17T12:23:51.404Z,17.42
2023-04-17T12:26:15.470Z,21.35
2023-04-17T12:28:39.533Z,20.88
2023-04-17T12:31:04.061Z,21.05
2023-04-17T12:33:27.631Z,20.88
2023-04-17T12:35:51.535Z,23.27
2023-04-17T12:38:15.268Z,23.83
2023-04-17T12:40:43.238Z,22.55
2023-04-17T12:43:08.393Z,23.55
2023-04-17T12:45:33.690Z,20.50
2023-04-17T12:47:57.335Z,26.75
2023-04-17T12:50:21.005Z,25.35
2023-04-17T12:52:44.549Z,20.42
2023-04-17T12:55:09.657Z,24.50
2023-04-17T12:57:35.526Z,23.25
2023-04-17T12:59:59.219Z,24.35
2023-04-17T13:02:23.891Z,24.67
2023-04-17T13:04:47.948Z,21.90
2023-04-17T13:07:13.413Z,24.35
2023-04-17T13:09:37.049Z,24.83
2023-04-17T13:12:01.529Z,22.33
2023-04-17T13:14:26.712Z,20.77
2023-04-17T13:16:50.950Z,24.88
2023-04-17T13:19:15.117Z,24.08
2023-04-17T13:21:38.980Z,24.10
2023-04-17T13:24:02.580Z,27.15
2023-04-17T13:26:26.266Z,24.58
2023-04-17T13:28:49.866Z,94.90
2023-04-17T13:31:14.918Z,27.15
2023-04-17T13:33:40.265Z,24.02
2023-04-17T13:36:03.823Z,22.45
2023-04-17T13:38:27.568Z,29.48
2023-04-17T13:40:51.117Z,37.60
2023-04-17T13:43:14.718Z,29.52
2023-04-17T13:45:38.381Z,35.50
2023-04-17T13:48:03.580Z,24.75
2023-04-17T13:50:27.176Z,26.35
2023-04-17T13:52:51.065Z,29.95
2023-04-17T13:55:14.748Z,29.70
2023-04-17T13:57:38.500Z,25.42
2023-04-17T14:00:02.083Z,27.50
2023-04-17T14:02:28.358Z,28.83
2023-04-17T14:04:53.644Z,29.38
2023-04-17T14:07:18.471Z,26.65
2023-04-17T14:09:42.132Z,27.35
2023-04-17T14:12:06.094Z,24.73
2023-04-17T14:14:29.655Z,24.00
2023-04-17T14:16:53.343Z,24.60
2023-04-17T14:19:17.206Z,27.95
2023-04-17T14:21:42.578Z,24.23
2023-04-17T14:24:06.766Z,24.08
2023-04-17T14:26:30.565Z,23.33
2023-04-17T14:28:54.256Z,23.00
2023-04-17T14:31:17.951Z,27.67
2023-04-17T14:33:41.569Z,27.67
2023-04-17T14:36:06.047Z,31.48
2023-04-17T14:38:31.215Z,26.20
2023-04-17T14:40:55.108Z,24.55
2023-04-17T14:43:18.837Z,26.02
2023-04-17T14:45:42.568Z,22.60
2023-04-17T14:48:07.185Z,23.10
2023-04-17T14:50:31.074Z,24.17
2023-04-17T14:52:55.914Z,25.73
2023-04-17T14:55:21.786Z,22.27
2023-04-17T14:57:45.637Z,24.20
2023-04-17T15:00:10.761Z,22.45
2023-04-17T15:02:38.544Z,27.88
2023-04-17T15:05:02.711Z,21.23
2023-04-17T15:07:26.477Z,22.88
2023-04-17T15:09:50.098Z,20.65
2023-04-17T15:12:15.006Z,23.67
2023-04-17T15:14:38.627Z,24.60
2023-04-17T15:17:03.245Z,24.73
2023-04-17T15:19:27.030Z,23.27
2023-04-17T15:21:50.822Z,22.58
2023-04-17T15:24:14.531Z,22.55
2023-04-17T15:26:38.129Z,23.35
2023-04-17T15:29:03.742Z,20.95
2023-04-17T15:31:27.356Z,21.92
2023-04-17T15:33:51.068Z,23.10
2023-04-17T15:36:14.681Z,19.90
2023-04-17T15:38:38.367Z,21.13
2023-04-17T15:41:03.667Z,19.50
2023-04-17T15:43:28.097Z,18.33
2023-04-17T15:45:53.614Z,18.60
2023-04-17T15:48:17.296Z,17.00
2023-04-17T15:50:40.964Z,19.60
2023-04-17T15:53:04.616Z,19.08
2023-04-17T15:55:28.308Z,15.38
2023-04-17T15:57:52.053Z,16.27
2023-04-17T16:00:16.907Z,15.55
2023-04-17T16:02:42.088Z,14.38
2023-04-17T16:05:06.447Z,16.35
2023-04-17T16:07:30.322Z,13.75
2023-04-17T16:09:53.860Z,15.15
2023-04-17T16:12:17.508Z,14.73
2023-04-17T16:14:41.062Z,15.05
2023-04-17T16:17:04.947Z,14.85
2023-04-17T16:19:30.547Z,16.70
2023-04-17T16:21:54.200Z,16.02
2023-04-17T16:24:17.744Z,14.65
2023-04-17T16:26:42.755Z,16.35
2023-04-17T16:29:06.372Z,16.42
2023-04-17T16:31:30.005Z,17.67
2023-04-17T16:33:53.854Z,17.70
2023-04-17T16:36:19.002Z,17.30
2023-04-17T16:38:42.588Z,18.60
2023-04-17T16:41:06.395Z,18.63
2023-04-17T16:43:30.464Z,19.80
2023-04-17T16:45:54.173Z,19.45
2023-04-17T16:48:17.892Z,17.80
2023-04-17T16:50:42.190Z,19.48
2023-04-17T16:53:07.320Z,22.27
2023-04-17T16:55:30.973Z,21.73
2023-04-17T16:57:55.700Z,20.92
2023-04-17T17:00:19.930Z,21.17
2023-04-17T17:02:43.834Z,22.38
2023-04-17T17:05:09.390Z,20.45
2023-04-17T17:07:34.287Z,25.63
2023-04-17T17:10:01.205Z,22.52
2023-04-17T17:12:26.757Z,22.75
2023-04-17T17:14:52.493Z,22.73
2023-04-17T17:17:16.229Z,21.05
2023-04-17T17:19:40.991Z,20.85
2023-04-17T17:22:05.988Z,20.20
2023-04-17T17:24:31.381Z,21.55
2023-04-17T17:26:57.184Z,21.35
2023-04-17T17:29:21.028Z,23.27
2023-04-17T17:31:52.149Z,22.65
2023-04-17T17:34:26.190Z,24.75
2023-04-17T17:36:50.562Z,21.58
2023-04-17T17:39:14.187Z,25.35
2023-04-17T17:41:38.005Z,21.95
2023-04-17T17:44:02.976Z,25.52
2023-04-17T17:46:27.848Z,23.08
2023-04-17T17:48:51.491Z,22.85
2023-04-17T17:51:15.250Z,27.00
2023-04-17T17:53:38.744Z,23.55
2023-04-17T17:56:02.651Z,24.45
2023-04-17T17:58:27.315Z,24.20
2023-04-17T18:00:52.480Z,25.00
2023-04-17T18:03:16.883Z,23.55
2023-04-17T18:05:40.801Z,23.92
2023-04-17T18:08:04.373Z,25.00
2023-04-17T18:10:30.882Z,26.63
2023-04-17T18:12:54.587Z,24.40
2023-04-17T18:15:18.824Z,28.92
2023-04-17T18:17:43.785Z,27.05
2023-04-17T18:20:09.215Z,29.38
2023-04-17T18:22:32.839Z,25.45
2023-04-17T18:24:56.830Z,21.77
2023-04-17T18:27:20.456Z,26.25
2023-04-17T18:29:44.089Z,27.52
2023-04-17T18:32:07.733Z,28.20
2023-04-17T18:34:32.739Z,28.05
2023-04-17T18:36:58.498Z,30.88
2023-04-17T18:39:22.140Z,30.13
2023-04-17T18:41:45.664Z,31.35
2023-04-17T18:44:09.267Z,33.85
2023-04-17T18:46:33.387Z,32.22
2023-04-17T18:48:57.246Z,29.17
2023-04-17T18:51:22.175Z,29.83
2023-04-17T18:53:47.021Z,32.38
2023-04-17T18:56:11.393Z,30.90
2023-04-17T18:58:35.201Z,35.38
2023-04-17T19:01:00.882Z,33.47
2023-04-17T19:03:25.571Z,30.27
2023-04-17T19:05:49.529Z,31.98
2023-04-17T19:08:14.956Z,31.92
2023-04-17T19:10:40.108Z,33.35
2023-04-17T19:13:05.380Z,35.67
2023-04-17T19:15:28.979Z,29.05
2023-04-17T19:17:52.816Z,33.45
2023-04-17T19:20:16.926Z,31.95
2023-04-17T19:22:40.597Z,28.63
2023-04-17T19:25:06.192Z,32.47
2023-04-17T19:27:29.855Z,35.58
2023-04-17T19:29:53.453Z,35.33
2023-04-17T19:32:17.199Z,32.45
2023-04-17T19:34:41.263Z,30.40
2023-04-17T19:37:05.287Z,32.45
2023-04-17T19:39:29.095Z,31.48
2023-04-17T19:41:54.058Z,35.38
2023-04-17T19:44:17.696Z,31.98
2023-04-17T19:46:42.637Z,31.00
2023-04-17T19:49:06.597Z,33.50
2023-04-17T19:51:30.191Z,34.08
2023-04-17T19:53:54.381Z,33.42
2023-04-17T19:56:18.095Z,33.33
2023-04-17T19:58:43.478Z,37.38
2023-04-17T20:01:07.478Z,35.22
2023-04-17T20:03:32.455Z,32.85
2023-04-17T20:05:57.894Z,36.70
2023-04-17T20:08:21.904Z,37.58
2023-04-17T20:10:45.580Z,36.50
2023-04-17T20:13:11.799Z,38.72
2023-04-17T20:15:36.965Z,35.25
2023-04-17T20:18:00.848Z,30.67
2023-04-17T20:20:24.822Z,33.83
2023-04-17T20:22:48.416Z,31.00
2023-04-17T20:25:12.028Z,36.05
2023-04-17T20:27:35.589Z,32.60
2023-04-17T20:29:59.180Z,32.28
2023-04-17T20:32:24.455Z,35.53
2023-04-17T20:34:48.219Z,33.75
2023-04-17T20:37:11.831Z,35.97
2023-04-17T20:39:35.451Z,35.35
2023-04-17T20:41:59.019Z,34.00
2023-04-17T20:44:22.754Z,34.53
2023-04-17T20:46:46.709Z,34.78
2023-04-17T20:49:11.925Z,36.45
2023-04-17T20:51:35.707Z,35.47
2023-04-17T20:53:59.344Z,32.90
2023-04-17T20:56:23.919Z,37.53
2023-04-17T20:58:47.643Z,36.15
2023-04-17T21:01:11.203Z,35.22
2023-04-17T21:03:35.040Z,35.17
2023-04-17T21:06:00.039Z,34.90
2023-04-17T21:08:23.788Z,34.17
2023-04-17T21:10:47.286Z,35.50
2023-04-17T21:13:10.957Z,38.20
2023-04-17T21:15:34.550Z,36.03
2023-04-17T21:17:58.249Z,38.20
2023-04-17T21:20:21.823Z,35.85
2023-04-17T21:22:47.110Z,27.45
2023-04-17T21:25:11.519Z,37.55
2023-04-17T21:27:36.313Z,35.78
2023-04-17T21:30:00.542Z,33.70
2023-04-17T21:32:24.622Z,37.45
2023-04-17T21:34:48.318Z,38.92
2023-04-17T21:37:11.956Z,39.20
2023-04-17T21:39:37.415Z,34.83
2023-04-17T21:42:01.989Z,34.45
2023-04-17T21:44:25.707Z,32.30
2023-04-17T21:46:49.319Z,33.38
2023-04-17T21:49:12.863Z,33.10
2023-04-17T21:51:36.441Z,35.55
2023-04-17T21:54:00.156Z,36.08
2023-04-17T21:56:25.236Z,37.15
2023-04-17T21:58:48.757Z,32.83
2023-04-17T22:01:12.536Z,31.48
2023-04-17T22:03:36.379Z,37.50
2023-04-17T22:06:00.024Z,31.85
2023-04-17T22:08:23.604Z,34.28
2023-04-17T22:10:47.225Z,30.55
2023-04-17T22:13:12.343Z,30.45
2023-04-17T22:15:36.091Z,32.45
2023-04-17T22:18:00.142Z,36.60
2023-04-17T22:20:23.791Z,33.17
2023-04-17T22:22:48.295Z,34.42
2023-04-17T22:25:11.896Z,32.75
2023-04-17T22:27:35.470Z,37.95
2023-04-17T22:30:00.569Z,33.17
2023-04-17T22:32:24.101Z,31.00
2023-04-17T22:34:49.469Z,31.02
2023-04-17T22:37:12.980Z,37.50
2023-04-17T22:39:36.761Z,30.67
2023-04-17T22:42:01.154Z,29.13
2023-04-17T22:44:24.735Z,32.22
2023-04-17T22:46:49.674Z,35.60
2023-04-17T22:49:14.843Z,29.23
2023-04-17T22:51:38.347Z,33.03
2023-04-17T22:54:11.614Z,32.72
2023-04-17T22:56:43.264Z,30.73
2023-04-17T22:59:06.789Z,33.17
2023-04-17T23:01:30.548Z,41.35
2023-04-17T23:03:55.505Z,30.45
2023-04-17T23:06:23.702Z,36.25
2023-04-17T23:08:47.288Z,33.60
2023-04-17T23:11:10.929Z,37.15
2023-04-17T23:13:34.476Z,32.88
2023-04-17T23:15:58.387Z,34.10
2023-04-17T23:18:22.103Z,35.42
2023-04-17T23:20:47.904Z,36.83
2023-04-17T23:23:11.591Z,34.67
2023-04-17T23:25:35.288Z,32.67
2023-04-17T23:27:58.799Z,37.17
2023-04-17T23:30:22.586Z,37.78
2023-04-17T23:32:46.195Z,37.10
2023-04-17T23:35:10.862Z,39.42
2023-04-17T23:37:35.802Z,35.10
2023-04-17T23:40:01.312Z,36.60
2023-04-17T23:42:24.864Z,36.20
2023-04-17T23:44:48.471Z,39.05
2023-04-17T23:47:14.348Z,39.87
2023-04-17T23:49:38.152Z,40.45
2023-04-17T23:52:01.794Z,37.53
2023-04-17T23:54:26.824Z,39.92
2023-04-17T23:56:50.426Z,36.22
2023-04-17T23:59:14.144Z,39.22
